createdAt,value
2017-04-04T00:00:39.297Z,6.56
2017-04-04T00:01:37.192Z,6.37
2017-04-04T00:02:35.040Z,6.32
2017-04-04T00:03:32.881Z,6.34
2017-04-04T00:04:30.748Z,6.41
2017-04-04T00:05:28.751Z,7.31
2017-04-04T00:06:26.614Z,7.09
2017-04-04T00:07:24.555Z,7.21
2017-04-04T00:08:22.397Z,6.14
2017-04-04T00:09:20.329Z,6.12
2017-04-04T00:10:18.237Z,6.18
2017-04-04T00:11:16.085Z,6.22
2017-04-04T00:12:13.931Z,6.07
2017-04-04T00:13:11.786Z,6.26
2017-04-04T00:14:09.828Z,6.34
2017-04-04T00:15:07.796Z,6.23
2017-04-04T00:16:05.665Z,6.93
2017-04-04T00:17:03.677Z,6.95
2017-04-04T00:18:01.545Z,7.04
2017-04-04T00:18:59.443Z,7.74
2017-04-04T00:19:57.253Z,7.86
2017-04-04T00:20:55.140Z,7.75
2017-04-04T00:21:53.017Z,7.08
2017-04-04T00:22:50.871Z,6.42
2017-04-04T00:23:48.710Z,6.24
2017-04-04T00:24:46.609Z,6.00
2017-04-04T00:25:44.533Z,5.81
2017-04-04T00:26:42.463Z,5.86
2017-04-04T00:27:40.296Z,5.90
2017-04-04T00:28:38.155Z,5.83
2017-04-04T00:29:35.978Z,6.35
2017-04-04T00:30:34.004Z,6.04
2017-04-04T00:31:31.894Z,5.44
2017-04-04T00:32:29.964Z,5.53
2017-04-04T00:33:27.831Z,5.56
2017-04-04T00:34:25.651Z,5.26
2017-04-04T00:35:23.600Z,5.33
2017-04-04T00:36:21.449Z,5.25
2017-04-04T00:37:19.260Z,5.49
2017-04-04T00:38:17.120Z,5.63
2017-04-04T00:39:15.220Z,5.84
2017-04-04T00:40:13.071Z,5.91
2017-04-04T00:41:11.021Z,5.92
2017-04-04T00:42:09.035Z,5.94
2017-04-04T00:43:06.936Z,6.01
2017-04-04T00:44:04.819Z,6.02
2017-04-04T00:45:02.712Z,6.21
2017-04-04T00:46:00.537Z,6.72
2017-04-04T00:46:58.483Z,6.63
2017-04-04T00:47:56.333Z,6.80
2017-04-04T00:48:54.184Z,6.56
2017-04-04T00:49:52.061Z,6.24
2017-04-04T00:50:49.911Z,5.94
2017-04-04T00:51:47.727Z,5.79
2017-04-04T00:52:45.540Z,5.70
2017-04-04T00:53:43.505Z,5.54
2017-04-04T00:54:41.399Z,5.57
2017-04-04T00:55:39.305Z,5.37
2017-04-04T00:56:37.200Z,5.70
2017-04-04T00:57:35.065Z,6.44
2017-04-04T00:58:32.912Z,6.85
2017-04-04T00:59:30.749Z,6.50
2017-04-04T01:00:28.619Z,6.68
2017-04-04T01:01:26.521Z,7.00
2017-04-04T01:02:24.390Z,5.92
2017-04-04T01:03:22.316Z,5.57
2017-04-04T01:04:20.192Z,5.47
2017-04-04T01:05:18.008Z,5.36
2017-04-04T01:06:15.848Z,5.23
2017-04-04T01:07:13.789Z,5.13
2017-04-04T01:08:11.661Z,5.24
2017-04-04T01:09:09.469Z,5.23
2017-04-04T01:10:07.697Z,5.51
2017-04-04T01:11:05.668Z,5.62
2017-04-04T01:12:03.524Z,5.99
2017-04-04T01:13:01.417Z,6.24
2017-04-04T01:13:59.273Z,6.04
2017-04-04T01:14:57.104Z,5.76
2017-04-04T01:15:54.924Z,5.45
2017-04-04T01:16:52.765Z,5.24
2017-04-04T01:17:50.735Z,4.98
2017-04-04T01:18:48.620Z,4.86
2017-04-04T01:19:46.444Z,4.86
2017-04-04T01:20:44.361Z,4.81
2017-04-04T01:21:42.208Z,4.93
2017-04-04T01:22:40.104Z,4.95
2017-04-04T01:23:37.948Z,5.02
2017-04-04T01:24:35.894Z,5.71
2017-04-04T01:25:33.809Z,6.11
2017-04-04T01:26:31.676Z,6.05
2017-04-04T01:27:29.573Z,6.31
2017-04-04T01:28:27.457Z,6.78
2017-04-04T01:29:25.272Z,6.67
2017-04-04T01:30:23.159Z,6.37
2017-04-04T01:31:21.215Z,5.86
2017-04-04T01:32:19.096Z,5.66
2017-04-04T01:33:17.025Z,5.75
2017-04-04T01:34:14.871Z,5.42
2017-04-04T01:35:12.790Z,4.99
2017-04-04T01:36:10.685Z,5.42
2017-04-04T01:37:08.511Z,5.34
2017-04-04T01:38:06.360Z,5.23
2017-04-04T01:39:04.676Z,5.21
2017-04-04T01:40:02.535Z,5.01
2017-04-04T01:41:00.420Z,4.98
2017-04-04T01:41:58.308Z,4.70
2017-04-04T01:42:56.227Z,4.87
2017-04-04T01:43:54.043Z,4.82
2017-04-04T01:44:51.931Z,4.90
2017-04-04T01:45:49.878Z,5.01
2017-04-04T01:46:47.751Z,5.21
2017-04-04T01:47:45.672Z,4.89
2017-04-04T01:48:43.533Z,4.92
2017-04-04T01:49:41.579Z,4.86
2017-04-04T01:50:39.463Z,4.75
2017-04-04T01:51:37.400Z,4.83
2017-04-04T01:52:35.256Z,4.78
2017-04-04T01:53:33.079Z,4.80
2017-04-04T01:54:31.003Z,4.84
2017-04-04T01:55:28.962Z,4.99
2017-04-04T01:56:26.935Z,4.92
2017-04-04T01:57:24.792Z,4.84
2017-04-04T01:58:22.688Z,4.99
2017-04-04T01:59:20.587Z,5.02
2017-04-04T02:00:18.850Z,4.63
2017-04-04T02:01:16.728Z,4.66
2017-04-04T02:02:14.612Z,4.49
2017-04-04T02:03:12.632Z,4.55
2017-04-04T02:04:10.491Z,5.34
2017-04-04T02:05:08.392Z,5.45
2017-04-04T02:06:06.308Z,6.13
2017-04-04T02:07:04.184Z,6.89
2017-04-04T02:08:02.007Z,7.22
2017-04-04T02:08:59.948Z,7.37
2017-04-04T02:09:57.802Z,6.23
2017-04-04T02:10:55.722Z,6.50
2017-04-04T02:11:53.620Z,6.25
2017-04-04T02:12:51.492Z,6.29
2017-04-04T02:13:49.471Z,5.76
2017-04-04T02:14:47.372Z,5.38
2017-04-04T02:15:45.297Z,4.91
2017-04-04T02:16:43.207Z,4.61
2017-04-04T02:17:41.208Z,4.28
2017-04-04T02:18:39.056Z,4.51
2017-04-04T02:19:36.963Z,4.49
2017-04-04T02:20:34.855Z,4.71
2017-04-04T02:21:32.786Z,4.69
2017-04-04T02:22:30.646Z,4.61
2017-04-04T02:23:28.567Z,5.79
2017-04-04T02:24:26.408Z,5.56
2017-04-04T02:25:24.313Z,6.21
2017-04-04T02:26:22.179Z,5.50
2017-04-04T02:27:20.056Z,5.77
2017-04-04T02:28:17.939Z,5.50
2017-04-04T02:29:15.857Z,5.41
2017-04-04T02:30:13.884Z,5.07
2017-04-04T02:31:11.780Z,4.76
2017-04-04T02:32:09.723Z,4.51
2017-04-04T02:33:07.591Z,4.58
2017-04-04T02:34:05.436Z,4.57
2017-04-04T02:35:03.320Z,4.64
2017-04-04T02:36:01.202Z,4.73
2017-04-04T02:36:59.118Z,4.74
2017-04-04T02:37:57.246Z,4.78
2017-04-04T02:38:55.095Z,4.90
2017-04-04T02:39:53.007Z,4.65
2017-04-04T02:40:50.886Z,4.49
2017-04-04T02:41:48.741Z,4.68
2017-04-04T02:42:46.568Z,5.35
2017-04-04T02:43:44.447Z,5.21
2017-04-04T02:44:42.396Z,5.26
2017-04-04T02:45:40.224Z,4.84
2017-04-04T02:46:38.135Z,4.81
2017-04-04T02:47:36.000Z,4.68
2017-04-04T02:48:33.897Z,4.81
2017-04-04T02:49:31.813Z,4.26
2017-04-04T02:50:29.707Z,4.13
2017-04-04T02:51:27.598Z,4.23
2017-04-04T02:52:25.450Z,4.36
2017-04-04T02:53:23.321Z,4.43
2017-04-04T02:54:21.177Z,5.02
2017-04-04T02:55:19.035Z,5.67
2017-04-04T02:56:16.980Z,5.83
2017-04-04T02:57:14.833Z,5.71
2017-04-04T02:58:12.754Z,5.20
2017-04-04T02:59:10.741Z,4.78
2017-04-04T03:00:08.657Z,4.92
2017-04-04T03:01:06.512Z,5.13
2017-04-04T03:02:04.473Z,5.79
2017-04-04T03:03:02.402Z,6.00
2017-04-04T03:04:00.228Z,5.96
2017-04-04T03:04:58.084Z,5.24
2017-04-04T03:05:56.050Z,4.63
2017-04-04T03:06:53.965Z,4.60
2017-04-04T03:07:51.780Z,4.32
2017-04-04T03:08:49.686Z,4.53
2017-04-04T03:09:47.557Z,4.51
2017-04-04T03:10:45.583Z,4.56
2017-04-04T03:11:43.549Z,4.79
2017-04-04T03:12:41.468Z,5.78
2017-04-04T03:13:39.445Z,5.19
2017-04-04T03:14:37.268Z,5.20
2017-04-04T03:15:35.172Z,4.88
2017-04-04T03:16:32.983Z,4.46
2017-04-04T03:17:30.893Z,4.14
2017-04-04T03:18:28.748Z,4.76
2017-04-04T03:19:26.632Z,4.37
2017-04-04T03:20:24.517Z,4.11
2017-04-04T03:21:22.368Z,4.57
2017-04-04T03:22:20.225Z,5.41
2017-04-04T03:23:18.120Z,4.72
2017-04-04T03:24:16.027Z,5.31
2017-04-04T03:25:13.907Z,4.74
2017-04-04T03:26:11.839Z,5.19
2017-04-04T03:27:09.787Z,4.76
2017-04-04T03:28:07.912Z,4.54
2017-04-04T03:29:05.962Z,4.55
2017-04-04T03:30:03.837Z,4.49
2017-04-04T03:31:01.858Z,5.26
2017-04-04T03:31:59.731Z,5.65
2017-04-04T03:32:57.681Z,6.20
2017-04-04T03:33:55.576Z,6.48
2017-04-04T03:34:53.486Z,6.15
2017-04-04T03:35:51.320Z,5.57
2017-04-04T03:36:49.236Z,5.27
2017-04-04T03:37:47.181Z,5.52
2017-04-04T03:38:45.025Z,4.69
2017-04-04T03:39:42.875Z,4.34
2017-04-04T03:40:40.732Z,4.06
2017-04-04T03:41:38.675Z,3.95
2017-04-04T03:42:36.508Z,4.08
2017-04-04T03:43:34.437Z,3.78
2017-04-04T03:44:32.290Z,3.88
2017-04-04T03:45:30.223Z,3.80
2017-04-04T03:46:28.052Z,4.07
2017-04-04T03:47:25.867Z,4.48
2017-04-04T03:48:23.788Z,4.30
2017-04-04T03:49:21.640Z,5.39
2017-04-04T03:50:19.585Z,4.78
2017-04-04T03:51:17.470Z,4.44
2017-04-04T03:52:15.290Z,4.39
2017-04-04T03:53:13.196Z,3.99
2017-04-04T03:54:11.073Z,4.13
2017-04-04T03:55:08.983Z,4.21
2017-04-04T03:56:06.833Z,4.63
2017-04-04T03:57:04.687Z,3.94
2017-04-04T03:58:02.628Z,4.27
2017-04-04T03:59:00.471Z,4.05
2017-04-04T03:59:58.324Z,4.44
2017-04-04T04:00:56.164Z,4.72
2017-04-04T04:01:54.056Z,4.18
2017-04-04T04:02:51.899Z,3.76
2017-04-04T04:03:49.888Z,3.62
2017-04-04T04:04:47.814Z,4.21
2017-04-04T04:05:45.675Z,5.15
2017-04-04T04:06:43.568Z,5.78
2017-04-04T04:07:41.464Z,6.02
2017-04-04T04:08:39.336Z,6.44
2017-04-04T04:09:37.224Z,6.60
2017-04-04T04:10:35.092Z,6.21
2017-04-04T04:11:32.925Z,5.68
2017-04-04T04:12:30.818Z,5.18
2017-04-04T04:13:28.658Z,5.28
2017-04-04T04:14:26.512Z,5.69
2017-04-04T04:15:24.402Z,5.86
2017-04-04T04:16:22.380Z,5.92
2017-04-04T04:17:20.189Z,4.88
2017-04-04T04:18:18.045Z,4.39
2017-04-04T04:19:15.935Z,3.91
2017-04-04T04:20:13.861Z,3.87
2017-04-04T04:21:11.719Z,3.94
2017-04-04T04:22:09.564Z,4.42
2017-04-04T04:23:07.523Z,4.79
2017-04-04T04:24:05.403Z,5.24
2017-04-04T04:25:03.279Z,5.12
2017-04-04T04:26:01.129Z,4.67
2017-04-04T04:26:59.018Z,4.36
2017-04-04T04:27:56.851Z,4.11
2017-04-04T04:28:54.799Z,4.25
2017-04-04T04:29:52.712Z,4.67
2017-04-04T04:30:50.606Z,5.15
2017-04-04T04:31:48.463Z,5.11
2017-04-04T04:32:46.297Z,5.56
2017-04-04T04:33:44.124Z,5.51
2017-04-04T04:34:42.034Z,5.13
2017-04-04T04:35:39.862Z,4.96
2017-04-04T04:36:37.773Z,4.45
2017-04-04T04:37:35.712Z,4.75
2017-04-04T04:38:33.595Z,5.12
2017-04-04T04:39:31.486Z,5.32
2017-04-04T04:40:29.383Z,4.93
2017-04-04T04:41:27.247Z,4.19
2017-04-04T04:42:25.147Z,3.76
2017-04-04T04:43:23.029Z,3.58
2017-04-04T04:44:20.870Z,3.47
2017-04-04T04:45:19.013Z,3.42
2017-04-04T04:46:16.906Z,3.37
2017-04-04T04:47:14.760Z,3.63
2017-04-04T04:48:12.790Z,3.56
2017-04-04T04:49:10.911Z,3.73
2017-04-04T04:50:08.824Z,3.68
2017-04-04T04:51:06.668Z,4.00
2017-04-04T04:52:04.541Z,4.46
2017-04-04T04:53:02.410Z,4.70
2017-04-04T04:54:00.225Z,5.13
2017-04-04T04:54:58.060Z,5.45
2017-04-04T04:55:55.973Z,5.58
2017-04-04T04:56:53.817Z,5.56
2017-04-04T04:57:51.647Z,5.85
2017-04-04T04:58:49.608Z,5.99
2017-04-04T04:59:47.536Z,6.10
2017-04-04T05:00:45.504Z,6.13
2017-04-04T05:01:43.383Z,5.53
2017-04-04T05:02:41.280Z,5.40
2017-04-04T05:03:39.146Z,5.54
2017-04-04T05:04:37.057Z,5.17
2017-04-04T05:05:34.928Z,4.75
2017-04-04T05:06:32.910Z,4.32
2017-04-04T05:07:30.815Z,3.95
2017-04-04T05:08:28.756Z,3.57
2017-04-04T05:09:26.666Z,3.36
2017-04-04T05:10:24.484Z,3.12
2017-04-04T05:11:22.318Z,3.10
2017-04-04T05:12:20.208Z,3.25
2017-04-04T05:13:18.071Z,3.25
2017-04-04T05:14:15.954Z,3.33
2017-04-04T05:15:13.837Z,3.56
2017-04-04T05:16:11.728Z,3.52
2017-04-04T05:17:09.700Z,3.55
2017-04-04T05:18:07.571Z,3.60
2017-04-04T05:19:05.500Z,4.05
2017-04-04T05:20:03.437Z,4.53
2017-04-04T05:21:01.359Z,4.81
2017-04-04T05:21:59.425Z,4.72
2017-04-04T05:24:08.264Z,5.55
2017-04-04T05:25:06.134Z,5.00
2017-04-04T05:26:03.996Z,4.29
2017-04-04T05:27:01.805Z,4.04
2017-04-04T05:27:59.839Z,3.94
2017-04-04T05:28:57.705Z,3.80
2017-04-04T05:29:55.609Z,3.61
2017-04-04T05:30:53.516Z,3.90
2017-04-04T05:31:51.359Z,3.77
2017-04-04T05:32:49.288Z,3.40
2017-04-04T05:33:47.120Z,4.92
2017-04-04T05:34:44.982Z,5.71
2017-04-04T05:35:44.296Z,5.82
2017-04-04T05:36:42.313Z,5.80
2017-04-04T05:37:40.143Z,5.78
2017-04-04T05:38:38.022Z,5.73
2017-04-04T05:39:35.857Z,5.93
2017-04-04T05:40:33.723Z,5.33
2017-04-04T05:41:31.648Z,4.60
2017-04-04T05:42:29.495Z,4.62
2017-04-04T05:43:27.425Z,4.63
2017-04-04T05:44:25.390Z,4.86
2017-04-04T05:45:23.354Z,5.10
2017-04-04T05:46:21.249Z,5.56
2017-04-04T05:47:19.205Z,6.01
2017-04-04T05:48:17.064Z,6.33
2017-04-04T05:49:14.940Z,6.44
2017-04-04T05:50:12.859Z,6.39
2017-04-04T05:51:10.676Z,5.75
2017-04-04T05:52:09.729Z,5.62
2017-04-04T05:53:07.627Z,5.55
2017-04-04T05:54:05.472Z,5.54
2017-04-04T05:55:03.356Z,5.56
2017-04-04T05:56:01.276Z,5.34
2017-04-04T05:56:59.168Z,5.64
2017-04-04T05:57:57.029Z,6.06
2017-04-04T05:58:54.924Z,6.18
2017-04-04T05:59:52.815Z,6.13
2017-04-04T06:00:50.684Z,6.17
2017-04-04T06:01:48.621Z,6.05
2017-04-04T06:02:46.521Z,6.14
2017-04-04T06:03:44.399Z,5.86
2017-04-04T06:04:42.309Z,5.10
2017-04-04T06:05:40.214Z,4.91
2017-04-04T06:06:38.132Z,5.23
2017-04-04T06:07:35.993Z,5.34
2017-04-04T06:08:33.932Z,5.26
2017-04-04T06:09:31.800Z,5.53
2017-04-04T06:10:30.101Z,5.77
2017-04-04T06:11:28.325Z,5.85
2017-04-04T06:12:26.272Z,5.73
2017-04-04T06:13:25.201Z,5.95
2017-04-04T06:14:23.209Z,6.30
2017-04-04T06:15:21.153Z,6.27
2017-04-04T06:16:19.225Z,6.48
2017-04-04T06:17:17.108Z,6.50
2017-04-04T06:18:14.993Z,6.62
2017-04-04T06:19:12.871Z,6.70
2017-04-04T06:20:10.760Z,6.48
2017-04-04T06:21:08.635Z,6.28
2017-04-04T06:22:06.492Z,6.28
2017-04-04T06:23:04.353Z,6.38
2017-04-04T06:24:02.222Z,6.57
2017-04-04T06:25:00.108Z,6.67
2017-04-04T06:25:58.016Z,6.69
2017-04-04T06:26:55.968Z,6.90
2017-04-04T06:27:53.849Z,6.86
2017-04-04T06:28:51.758Z,6.66
2017-04-04T06:29:49.605Z,6.67
2017-04-04T06:30:47.494Z,6.84
2017-04-04T06:31:45.374Z,6.93
2017-04-04T06:32:43.196Z,6.73
2017-04-04T06:33:41.040Z,6.67
2017-04-04T06:34:39.058Z,6.76
2017-04-04T06:35:36.924Z,6.65
2017-04-04T06:36:34.820Z,6.59
2017-04-04T06:37:32.689Z,6.68
2017-04-04T06:38:30.530Z,6.81
2017-04-04T06:39:28.434Z,7.04
2017-04-04T06:40:26.340Z,7.03
2017-04-04T06:41:24.157Z,7.12
2017-04-04T06:42:21.983Z,7.24
2017-04-04T06:43:19.927Z,7.40
2017-04-04T06:44:17.844Z,7.36
2017-04-04T06:45:15.764Z,7.24
2017-04-04T06:46:13.659Z,6.32
2017-04-04T06:47:15.828Z,6.01
2017-04-04T06:48:13.903Z,6.47
2017-04-04T06:49:11.792Z,6.11
2017-04-04T06:50:10.167Z,5.86
2017-04-04T06:51:08.023Z,5.87
2017-04-04T06:52:05.896Z,5.83
2017-04-04T06:53:03.867Z,5.86
2017-04-04T06:54:01.881Z,5.93
2017-04-04T06:54:59.808Z,5.90
2017-04-04T06:55:57.676Z,5.91
2017-04-04T06:56:55.597Z,5.91
2017-04-04T06:57:53.486Z,5.84
2017-04-04T06:58:51.453Z,5.98
2017-04-04T06:59:49.415Z,6.41
2017-04-04T07:00:47.424Z,6.98
2017-04-04T07:01:45.333Z,6.76
2017-04-04T07:02:45.303Z,7.06
2017-04-04T07:03:43.339Z,6.81
2017-04-04T07:04:41.361Z,6.56
2017-04-04T07:05:39.498Z,6.77
2017-04-04T07:06:37.539Z,7.05
2017-04-04T07:07:35.441Z,6.85
2017-04-04T07:08:33.460Z,6.50
2017-04-04T07:09:31.328Z,7.01
2017-04-04T07:10:29.168Z,7.56
2017-04-04T07:11:27.011Z,7.65
2017-04-04T07:12:24.956Z,7.01
2017-04-04T07:13:22.849Z,6.82
2017-04-04T07:14:20.788Z,6.77
2017-04-04T07:15:18.717Z,6.70
2017-04-04T07:16:16.588Z,6.79
2017-04-04T07:17:14.420Z,7.36
2017-04-04T07:18:12.348Z,7.63
2017-04-04T07:19:10.261Z,7.85
2017-04-04T07:20:08.180Z,7.98
2017-04-04T07:21:06.101Z,7.88
2017-04-04T07:22:03.969Z,8.21
2017-04-04T07:23:01.870Z,8.23
2017-04-04T07:23:59.775Z,8.11
2017-04-04T07:24:57.803Z,7.74
2017-04-04T07:25:55.800Z,7.56
2017-04-04T07:26:53.661Z,8.08
2017-04-04T07:27:51.565Z,8.05
2017-04-04T07:28:49.439Z,8.01
2017-04-04T07:29:47.342Z,8.50
2017-04-04T07:30:45.245Z,8.42
2017-04-04T07:31:43.187Z,8.41
2017-04-04T07:32:41.128Z,8.42
2017-04-04T07:33:38.980Z,8.35
2017-04-04T07:34:36.849Z,7.87
2017-04-04T07:35:34.702Z,7.77
2017-04-04T07:36:32.606Z,8.48
2017-04-04T07:37:30.501Z,8.94
2017-04-04T07:38:28.350Z,9.34
2017-04-04T07:39:26.222Z,8.70
2017-04-04T07:40:24.180Z,8.88
2017-04-04T07:41:22.125Z,8.33
2017-04-04T07:42:20.080Z,8.10
2017-04-04T07:43:18.005Z,7.97
2017-04-04T07:44:15.957Z,8.02
2017-04-04T07:45:13.835Z,8.01
2017-04-04T07:46:11.752Z,8.06
2017-04-04T07:47:09.636Z,8.09
2017-04-04T07:48:07.542Z,8.11
2017-04-04T07:49:05.419Z,8.21
2017-04-04T07:50:03.506Z,8.31
2017-04-04T07:51:01.433Z,8.31
2017-04-04T07:51:59.383Z,8.49
2017-04-04T07:52:57.230Z,8.77
2017-04-04T07:53:55.137Z,9.36
2017-04-04T07:54:53.062Z,8.93
2017-04-04T07:55:50.967Z,8.74
2017-04-04T07:56:48.825Z,8.79
2017-04-04T07:57:46.751Z,8.65
2017-04-04T07:58:44.707Z,8.83
2017-04-04T07:59:42.605Z,8.89
2017-04-04T08:00:40.521Z,9.05
2017-04-04T08:01:38.450Z,9.08
2017-04-04T08:02:36.493Z,9.14
2017-04-04T08:03:34.416Z,9.15
2017-04-04T08:04:32.333Z,9.18
2017-04-04T08:05:30.191Z,9.19
2017-04-04T08:06:28.101Z,9.42
2017-04-04T08:07:25.972Z,9.45
2017-04-04T08:08:23.847Z,9.45
2017-04-04T08:09:21.722Z,9.44
2017-04-04T08:10:19.771Z,9.50
2017-04-04T08:11:17.682Z,9.45
2017-04-04T08:12:15.579Z,9.46
2017-04-04T08:13:13.469Z,10.07
2017-04-04T08:14:11.411Z,10.84
2017-04-04T08:15:09.268Z,11.17
2017-04-04T08:16:07.128Z,10.69
2017-04-04T08:17:04.992Z,10.53
2017-04-04T08:18:02.880Z,10.08
2017-04-04T08:19:00.768Z,10.61
2017-04-04T08:19:58.667Z,11.25
2017-04-04T08:20:56.509Z,10.68
2017-04-04T08:21:54.392Z,10.64
2017-04-04T08:22:52.293Z,10.51
2017-04-04T08:23:50.192Z,10.22
2017-04-04T08:24:48.065Z,10.13
2017-04-04T08:25:46.008Z,10.27
2017-04-04T08:26:43.904Z,10.44
2017-04-04T08:27:41.963Z,10.20
2017-04-04T08:28:39.821Z,10.10
2017-04-04T08:29:37.745Z,10.17
2017-04-04T08:30:35.583Z,10.24
2017-04-04T08:31:33.537Z,10.19
2017-04-04T08:32:31.396Z,10.42
2017-04-04T08:33:29.326Z,11.47
2017-04-04T08:34:27.193Z,11.02
2017-04-04T08:35:25.092Z,11.19
2017-04-04T08:36:22.964Z,10.91
2017-04-04T08:37:20.814Z,10.79
2017-04-04T08:38:18.656Z,10.64
2017-04-04T08:39:16.605Z,10.52
2017-04-04T08:40:14.504Z,10.64
2017-04-04T08:41:12.411Z,10.62
2017-04-04T08:42:10.317Z,10.70
2017-04-04T08:43:08.248Z,10.91
2017-04-04T08:44:06.186Z,10.92
2017-04-04T08:45:04.093Z,10.85
2017-04-04T08:46:02.013Z,11.09
2017-04-04T08:46:59.900Z,11.10
2017-04-04T08:47:57.777Z,11.21
2017-04-04T08:48:55.636Z,11.30
2017-04-04T08:49:53.485Z,11.25
2017-04-04T08:50:51.431Z,11.35
2017-04-04T08:51:49.328Z,11.85
2017-04-04T08:52:47.221Z,11.28
2017-04-04T08:53:45.095Z,11.08
2017-04-04T08:54:43.037Z,11.09
2017-04-04T08:55:40.887Z,11.49
2017-04-04T08:56:38.777Z,12.15
2017-04-04T08:57:36.695Z,11.78
2017-04-04T08:58:36.143Z,11.78
2017-04-04T08:59:33.988Z,11.71
2017-04-04T09:00:32.000Z,11.72
2017-04-04T09:01:30.173Z,11.41
2017-04-04T09:02:28.266Z,11.36
2017-04-04T09:03:30.307Z,12.09
2017-04-04T09:04:29.636Z,12.08
2017-04-04T09:05:27.574Z,12.20
2017-04-04T09:06:25.481Z,12.28
2017-04-04T09:07:23.338Z,12.28
2017-04-04T09:08:21.390Z,12.82
2017-04-04T09:09:19.323Z,12.61
2017-04-04T09:10:17.191Z,12.58
2017-04-04T09:11:15.074Z,12.37
2017-04-04T09:12:12.908Z,12.23
2017-04-04T09:13:10.876Z,12.22
2017-04-04T09:14:08.774Z,12.15
2017-04-04T09:15:06.669Z,12.03
2017-04-04T09:16:04.477Z,12.12
2017-04-04T09:17:02.366Z,12.17
2017-04-04T09:18:00.284Z,12.17
2017-04-04T09:18:58.172Z,12.54
2017-04-04T09:19:56.024Z,12.73
2017-04-04T09:20:54.005Z,13.15
2017-04-04T09:21:51.889Z,12.55
2017-04-04T09:22:49.825Z,12.47
2017-04-04T09:23:47.720Z,12.21
2017-04-04T09:24:45.601Z,12.21
2017-04-04T09:25:43.476Z,12.45
2017-04-04T09:26:41.349Z,12.32
2017-04-04T09:27:39.184Z,12.18
2017-04-04T09:28:37.067Z,12.50
2017-04-04T09:29:36.089Z,12.68
2017-04-04T09:30:33.977Z,12.56
2017-04-04T09:31:31.820Z,13.24
2017-04-04T09:32:29.675Z,13.00
2017-04-04T09:33:27.581Z,13.37
2017-04-04T09:34:25.447Z,14.18
2017-04-04T09:35:23.303Z,14.37
2017-04-04T09:36:21.243Z,14.34
2017-04-04T09:37:19.199Z,14.12
2017-04-04T09:38:17.209Z,13.51
2017-04-04T09:39:15.049Z,13.88
2017-04-04T09:40:13.018Z,14.23
2017-04-04T09:41:10.872Z,14.70
2017-04-04T09:42:08.837Z,14.77
2017-04-04T09:43:06.765Z,14.19
2017-04-04T09:44:06.896Z,13.90
2017-04-04T09:45:04.804Z,13.73
2017-04-04T09:46:02.652Z,13.78
2017-04-04T09:47:00.575Z,13.64
2017-04-04T09:47:59.562Z,13.80
2017-04-04T09:48:57.425Z,13.80
2017-04-04T09:49:55.313Z,13.99
2017-04-04T09:50:53.212Z,14.71
2017-04-04T09:51:51.144Z,15.15
2017-04-04T09:52:49.045Z,15.18
2017-04-04T09:53:46.977Z,14.78
2017-04-04T09:54:44.893Z,14.50
2017-04-04T09:55:42.888Z,14.22
2017-04-04T09:56:40.844Z,14.19
2017-04-04T09:57:38.705Z,14.37
2017-04-04T09:58:36.573Z,14.33
2017-04-04T09:59:34.474Z,14.33
2017-04-04T10:00:38.990Z,14.38
2017-04-04T10:01:36.898Z,14.34
2017-04-04T10:02:34.816Z,13.97
2017-04-04T10:03:32.710Z,14.01
2017-04-04T10:04:30.672Z,14.17
2017-04-04T10:05:29.006Z,14.49
2017-04-04T10:06:26.918Z,14.55
2017-04-04T10:07:24.876Z,14.48
2017-04-04T10:08:22.755Z,14.34
2017-04-04T10:09:20.682Z,14.38
2017-04-04T10:10:18.608Z,14.06
2017-04-04T10:11:16.462Z,14.12
2017-04-04T10:12:14.360Z,14.04
2017-04-04T10:13:12.248Z,14.01
2017-04-04T10:14:10.256Z,14.02
2017-04-04T10:15:08.200Z,14.08
2017-04-04T10:16:06.136Z,14.27
2017-04-04T10:17:04.123Z,14.15
2017-04-04T10:18:02.052Z,14.37
2017-04-04T10:18:59.964Z,14.48
2017-04-04T10:19:57.889Z,14.68
2017-04-04T10:20:55.888Z,14.68
2017-04-04T10:21:53.768Z,14.41
2017-04-04T10:22:51.645Z,14.46
2017-04-04T10:23:49.544Z,14.56
2017-04-04T10:24:47.409Z,14.68
2017-04-04T10:25:45.303Z,14.68
2017-04-04T10:26:43.152Z,14.68
2017-04-04T10:27:41.115Z,14.76
2017-04-04T10:28:38.993Z,14.82
2017-04-04T10:29:36.861Z,14.58
2017-04-04T10:30:34.785Z,14.66
2017-04-04T10:31:32.759Z,14.44
2017-04-04T10:32:30.655Z,14.58
2017-04-04T10:33:28.559Z,14.60
2017-04-04T10:34:26.470Z,14.99
2017-04-04T10:35:24.409Z,14.85
2017-04-04T10:36:22.352Z,14.59
2017-04-04T10:37:20.243Z,14.81
2017-04-04T10:38:18.408Z,14.88
2017-04-04T10:39:16.300Z,14.87
2017-04-04T10:40:14.188Z,14.86
2017-04-04T10:41:12.105Z,15.32
2017-04-04T10:42:09.973Z,15.00
2017-04-04T10:43:07.869Z,15.18
2017-04-04T10:44:05.801Z,15.23
2017-04-04T10:45:03.689Z,15.21
2017-04-04T10:46:01.648Z,15.10
2017-04-04T10:46:59.481Z,15.27
2017-04-04T10:47:57.387Z,15.24
2017-04-04T10:48:55.277Z,15.30
2017-04-04T10:49:53.120Z,15.52
2017-04-04T10:50:51.001Z,15.29
2017-04-04T10:51:48.955Z,16.02
2017-04-04T10:52:46.836Z,15.26
2017-04-04T10:53:44.762Z,15.32
2017-04-04T10:54:42.684Z,15.36
2017-04-04T10:55:40.669Z,15.28
2017-04-04T10:56:38.559Z,15.31
2017-04-04T10:57:36.496Z,15.58
2017-04-04T10:58:34.372Z,15.68
2017-04-04T10:59:32.244Z,15.60
2017-04-04T11:00:30.208Z,15.90
2017-04-04T11:01:28.091Z,15.55
2017-04-04T11:02:26.018Z,15.58
2017-04-04T11:03:23.900Z,15.83
2017-04-04T11:04:21.797Z,15.72
2017-04-04T11:05:19.784Z,15.13
2017-04-04T11:06:17.858Z,15.15
2017-04-04T11:07:15.704Z,15.40
2017-04-04T11:08:13.623Z,15.19
2017-04-04T11:09:11.507Z,15.35
2017-04-04T11:10:09.432Z,15.18
2017-04-04T11:11:07.299Z,15.46
2017-04-04T11:12:09.821Z,15.54
2017-04-04T11:13:07.893Z,15.62
2017-04-04T11:14:05.783Z,15.19
2017-04-04T11:15:03.748Z,15.55
2017-04-04T11:16:01.638Z,15.84
2017-04-04T11:16:59.551Z,15.97
2017-04-04T11:17:57.643Z,16.00
2017-04-04T11:18:55.571Z,15.96
2017-04-04T11:19:53.434Z,15.97
2017-04-04T11:20:51.427Z,16.05
2017-04-04T11:21:49.305Z,16.06
2017-04-04T11:22:47.187Z,16.11
2017-04-04T11:23:45.063Z,16.05
2017-04-04T11:24:42.952Z,16.13
2017-04-04T11:25:40.869Z,16.20
2017-04-04T11:26:38.727Z,16.30
2017-04-04T11:27:36.604Z,16.48
2017-04-04T11:28:34.491Z,16.54
2017-04-04T11:29:32.761Z,16.65
2017-04-04T11:30:30.586Z,16.45
2017-04-04T11:31:28.581Z,16.46
2017-04-04T11:32:26.444Z,16.46
2017-04-04T11:33:26.997Z,16.27
2017-04-04T11:34:24.952Z,16.41
2017-04-04T11:35:23.019Z,16.04
2017-04-04T11:36:21.021Z,15.69
2017-04-04T11:37:18.929Z,15.32
2017-04-04T11:38:16.867Z,15.71
2017-04-04T11:39:14.772Z,16.01
2017-04-04T11:40:12.663Z,16.21
2017-04-04T11:41:10.533Z,16.41
2017-04-04T11:42:08.489Z,16.65
2017-04-04T11:43:06.359Z,17.21
2017-04-04T11:44:04.224Z,17.49
2017-04-04T11:45:02.062Z,17.56
2017-04-04T11:45:59.946Z,17.38
2017-04-04T11:46:57.781Z,17.09
2017-04-04T11:47:55.601Z,17.01
2017-04-04T11:48:53.432Z,16.76
2017-04-04T11:49:51.612Z,16.52
2017-04-04T11:50:49.575Z,16.30
2017-04-04T11:51:47.451Z,16.45
2017-04-04T11:52:45.281Z,16.72
2017-04-04T11:53:43.235Z,16.69
2017-04-04T11:54:41.142Z,16.66
2017-04-04T11:55:38.980Z,16.75
2017-04-04T11:56:36.833Z,16.71
2017-04-04T11:57:34.691Z,16.85
2017-04-04T11:58:32.578Z,16.76
2017-04-04T11:59:30.459Z,16.98
2017-04-04T12:00:28.426Z,16.88
2017-04-04T12:01:26.395Z,16.67
2017-04-04T12:02:24.561Z,16.76
2017-04-04T12:03:22.465Z,17.15
2017-04-04T12:04:20.392Z,16.77
2017-04-04T12:05:18.261Z,16.78
2017-04-04T12:06:16.131Z,16.67
2017-04-04T12:07:14.009Z,16.57
2017-04-04T12:08:11.924Z,16.81
2017-04-04T12:09:09.809Z,16.77
2017-04-04T12:10:07.705Z,16.90
2017-04-04T12:11:05.640Z,16.96
2017-04-04T12:12:03.549Z,16.81
2017-04-04T12:13:01.424Z,16.66
2017-04-04T12:13:59.617Z,17.00
2017-04-04T12:14:57.500Z,17.22
2017-04-04T12:15:55.637Z,17.33
2017-04-04T12:16:53.648Z,17.54
2017-04-04T12:17:51.666Z,17.53
2017-04-04T12:18:49.545Z,16.99
2017-04-04T12:19:47.779Z,17.01
2017-04-04T12:20:45.613Z,17.31
2017-04-04T12:21:43.611Z,17.49
2017-04-04T12:22:41.462Z,17.60
2017-04-04T12:23:39.422Z,17.45
2017-04-04T12:24:37.298Z,17.56
2017-04-04T12:25:35.268Z,17.17
2017-04-04T12:26:33.101Z,16.93
2017-04-04T12:27:31.585Z,17.28
2017-04-04T12:28:29.408Z,17.62
2017-04-04T12:29:27.268Z,17.49
2017-04-04T12:30:25.166Z,17.48
2017-04-04T12:31:23.023Z,17.64
2017-04-04T12:32:20.924Z,17.35
2017-04-04T12:33:18.741Z,17.50
2017-04-04T12:34:16.597Z,17.58
2017-04-04T12:35:14.495Z,17.76
2017-04-04T12:36:12.383Z,17.43
2017-04-04T12:37:10.259Z,17.38
2017-04-04T12:38:08.329Z,17.15
2017-04-04T12:39:06.213Z,17.26
2017-04-04T12:40:04.240Z,17.05
2017-04-04T12:41:02.118Z,17.67
2017-04-04T12:42:00.053Z,17.52
2017-04-04T12:42:57.926Z,17.27
2017-04-04T12:43:55.836Z,17.05